Time;durP1;ratioP1;P1;durP2;ratioP2;P2;SDS_P1;SDS_P2;PMS_P1;PMS_P2;Temp;Humidity;BMP_temperature;BMP_pressure;BME280_temperature;BME280_humidity;BME280_pressure;Samples;Min_cycle;Max_cycle;Signal;HPM_P1;HPM_P2
2023/01/17 00:02:13;;;;;;;1.30;0.50;;;6.00;99.90;;;;;;5052098;28;20610;-77
2023/01/17 00:10:37;;;;;;;1.80;0.70;;;5.90;99.90;;;;;;5051319;28;20181;-77
2023/01/17 00:13:02;;;;;;;1.45;0.95;;;5.80;99.90;;;;;;5049879;28;20234;-77
2023/01/17 00:15:30;;;;;;;2.27;0.90;;;5.70;99.90;;;;;;5070150;28;20176;-73
2023/01/17 00:17:56;;;;;;;4.18;1.40;;;5.70;99.90;;;;;;5052137;28;20277;-73
2023/01/17 00:26:14;;;;;;;2.00;1.20;;;5.60;99.90;;;;;;5069795;28;20496;-73
2023/01/17 01:35:45;;;;;;;3.05;0.70;;;5.80;99.90;;;;;;5068972;28;20172;-73
2023/01/17 01:38:11;;;;;;;2.38;0.70;;;5.80;99.90;;;;;;5033481;28;20722;-72
2023/01/17 01:40:48;;;;;;;1.80;0.60;;;5.80;99.90;;;;;;5068374;28;20164;-72
2023/01/17 01:43:17;;;;;;;2.65;0.90;;;5.80;99.90;;;;;;5068214;28;20180;-73
2023/01/17 01:45:55;;;;;;;1.88;0.60;;;5.80;99.90;;;;;;5051096;28;20310;-73
2023/01/17 01:48:35;;;;;;;2.13;0.65;;;5.80;99.90;;;;;;5067129;28;20199;-73
2023/01/17 01:51:05;;;;;;;3.38;0.80;;;5.80;99.90;;;;;;5052412;28;20317;-73
2023/01/17 01:53:36;;;;;;;1.35;0.70;;;5.80;99.90;;;;;;5067956;28;20199;-73
2023/01/17 01:56:04;;;;;;;2.70;0.70;;;5.70;99.90;;;;;;5050675;28;20172;-73
2023/01/17 01:58:33;;;;;;;1.55;0.70;;;5.70;99.90;;;;;;5068190;28;20188;-73
2023/01/17 02:00:59;;;;;;;1.60;0.73;;;5.70;99.90;;;;;;5049855;28;20242;-73
2023/01/17 02:03:28;;;;;;;1.70;0.63;;;5.70;99.90;;;;;;5040914;28;20192;-73
2023/01/17 02:05:55;;;;;;;1.48;0.60;;;5.70;99.90;;;;;;5050674;28;20169;-73
2023/01/17 02:08:22;;;;;;;4.75;0.70;;;5.70;99.90;;;;;;5050442;28;20198;-73
2023/01/17 02:10:48;;;;;;;1.40;0.70;;;5.70;99.90;;;;;;5068251;28;20168;-73
2023/01/17 02:13:16;;;;;;;3.22;0.70;;;5.70;99.90;;;;;;5016674;28;20184;-73
2023/01/17 02:16:07;;;;;;;1.70;1.00;;;5.70;99.90;;;;;;5068306;28;20219;-73
2023/01/17 02:18:33;;;;;;;4.43;0.60;;;5.70;99.90;;;;;;5050376;28;20219;-72
2023/01/17 02:21:21;;;;;;;3.00;0.70;;;5.70;99.90;;;;;;5033437;28;20192;-73
2023/01/17 02:24:11;;;;;;;2.65;0.80;;;5.70;99.90;;;;;;5050722;28;20192;-73
2023/01/17 02:27:10;;;;;;;2.00;0.60;;;5.70;99.90;;;;;;5033643;28;20837;-73
2023/01/17 02:29:50;;;;;;;2.35;0.70;;;5.80;99.90;;;;;;5070872;28;20180;-73
2023/01/17 02:32:28;;;;;;;1.50;0.60;;;5.80;99.90;;;;;;5067974;28;20259;-73
2023/01/17 02:35:03;;;;;;;1.98;0.82;;;5.80;99.90;;;;;;5050441;28;20302;-73
2023/01/17 02:37:42;;;;;;;1.73;0.60;;;5.80;99.90;;;;;;5071429;28;20203;-74
2023/01/17 02:40:29;;;;;;;1.98;0.60;;;5.80;99.90;;;;;;5053626;28;20578;-73
2023/01/17 02:43:01;;;;;;;3.08;0.80;;;5.90;99.90;;;;;;5036709;28;20547;-73
2023/01/17 02:45:27;;;;;;;1.50;0.90;;;5.90;99.90;;;;;;5054237;28;20172;-74
2023/01/17 02:47:53;;;;;;;2.25;1.33;;;5.90;99.90;;;;;;5036878;28;20596;-73
2023/01/17 02:50:23;;;;;;;3.63;1.13;;;5.90;99.90;;;;;;5053620;28;20177;-73
2023/01/17 02:52:52;;;;;;;1.85;0.88;;;5.90;99.90;;;;;;5053292;28;20173;-73
2023/01/17 02:55:39;;;;;;;1.60;0.90;;;5.90;99.90;;;;;;5053509;28;20314;-73
2023/01/17 02:58:24;;;;;;;2.10;0.80;;;5.80;99.90;;;;;;5053576;28;20199;-73
2023/01/17 03:01:08;;;;;;;3.40;1.17;;;5.90;99.90;;;;;;5053463;28;20168;-73
2023/01/17 03:03:48;;;;;;;7.22;1.77;;;5.90;99.90;;;;;;5070180;28;20287;-73
2023/01/17 03:06:38;;;;;;;3.28;1.10;;;5.80;99.90;;;;;;5057675;28;20172;-73
2023/01/17 03:09:05;;;;;;;5.55;1.50;;;5.80;99.90;;;;;;5071076;28;20187;-73
2023/01/17 03:11:31;;;;;;;3.47;1.52;;;5.90;99.90;;;;;;5069516;28;20194;-73
2023/01/17 03:13:57;;;;;;;3.47;1.60;;;5.90;99.90;;;;;;5053258;28;20200;-73
2023/01/17 03:16:26;;;;;;;2.50;1.20;;;5.80;99.90;;;;;;5036908;28;20263;-72
2023/01/17 03:18:52;;;;;;;1.60;1.10;;;5.90;99.90;;;;;;5070867;28;20864;-72
2023/01/17 03:21:19;;;;;;;2.92;1.50;;;5.90;99.90;;;;;;5052568;28;20176;-73
2023/01/17 03:23:45;;;;;;;2.63;1.50;;;5.90;99.90;;;;;;5071221;28;20203;-73
2023/01/17 03:26:10;;;;;;;3.37;2.07;;;5.90;99.90;;;;;;5052925;28;20180;-72
2023/01/17 03:28:36;;;;;;;4.87;2.00;;;5.80;99.90;;;;;;5071210;28;20215;-73
2023/01/17 03:31:02;;;;;;;3.73;1.70;;;5.90;99.90;;;;;;5052339;28;20187;-73
2023/01/17 03:33:27;;;;;;;2.27;1.60;;;5.80;99.90;;;;;;5070948;28;20329;-73
2023/01/17 03:35:56;;;;;;;2.53;1.30;;;5.80;99.90;;;;;;5036401;28;20651;-72
2023/01/17 03:38:27;;;;;;;2.97;2.03;;;5.80;99.90;;;;;;5069538;28;20204;-73
2023/01/17 03:40:52;;;;;;;2.53;1.48;;;5.80;99.90;;;;;;5071341;28;20169;-72
2023/01/17 03:43:18;;;;;;;4.00;1.53;;;5.80;99.90;;;;;;5041394;28;20203;-73
2023/01/17 03:45:47;;;;;;;2.30;2.10;;;5.70;99.90;;;;;;5063837;28;20173;-73
2023/01/17 03:48:13;;;;;;;2.72;1.80;;;5.80;99.90;;;;;;5069028;28;20664;-73
2023/01/17 03:50:38;;;;;;;6.17;2.00;;;5.80;99.90;;;;;;5086661;28;20173;-73
2023/01/17 03:53:04;;;;;;;3.67;1.80;;;5.80;99.90;;;;;;5084396;28;20180;-73
2023/01/17 03:55:29;;;;;;;4.73;3.67;;;5.70;99.90;;;;;;5051354;28;20217;-73
2023/01/17 03:57:55;;;;;;;4.90;1.70;;;5.80;99.90;;;;;;5068238;28;20786;-73
2023/01/17 04:00:21;;;;;;;4.60;2.57;;;5.70;99.90;;;;;;5075908;28;20531;-73
2023/01/17 04:02:52;;;;;;;4.90;1.90;;;5.70;99.90;;;;;;5054282;28;20250;-73
2023/01/17 04:05:17;;;;;;;3.35;1.98;;;5.70;99.90;;;;;;5054310;28;20311;-73
2023/01/17 04:07:43;;;;;;;2.77;1.80;;;5.70;99.90;;;;;;5072469;28;20296;-72
2023/01/17 04:10:09;;;;;;;3.30;1.67;;;5.70;99.90;;;;;;5053869;28;20182;-72
2023/01/17 04:12:35;;;;;;;3.20;1.80;;;5.70;99.90;;;;;;5088051;28;20547;-72
2023/01/17 04:15:00;;;;;;;2.00;1.73;;;5.70;99.90;;;;;;5072020;28;20223;-72
2023/01/17 04:17:27;;;;;;;5.35;1.35;;;5.60;99.90;;;;;;5056931;28;20192;-73
2023/01/17 04:19:52;;;;;;;6.07;1.60;;;5.60;99.90;;;;;;5055358;28;20167;-72
2023/01/17 04:22:18;;;;;;;4.63;1.80;;;5.60;99.90;;;;;;5051644;28;20611;-73
2023/01/17 04:24:44;;;;;;;3.60;2.23;;;5.60;99.90;;;;;;5058342;28;20195;-73
2023/01/17 04:27:13;;;;;;;4.43;1.70;;;5.60;99.90;;;;;;5070050;28;20196;-73
2023/01/17 04:29:39;;;;;;;5.63;1.73;;;5.50;99.90;;;;;;5069007;28;20195;-73
2023/01/17 04:32:04;;;;;;;2.33;1.27;;;5.50;99.90;;;;;;5051249;28;20230;-73
2023/01/17 04:34:30;;;;;;;3.63;1.50;;;5.50;99.90;;;;;;5035007;28;20611;-73
2023/01/17 04:36:56;;;;;;;3.27;1.50;;;5.50;99.90;;;;;;5051819;28;21010;-73
2023/01/17 04:39:21;;;;;;;3.10;2.00;;;5.50;99.90;;;;;;5052009;28;20180;-72
2023/01/17 04:41:47;;;;;;;3.13;2.00;;;5.40;99.90;;;;;;5050838;28;20218;-73
2023/01/17 04:44:13;;;;;;;4.30;2.03;;;5.40;99.90;;;;;;5085591;28;20263;-72
2023/01/17 04:46:38;;;;;;;5.37;2.43;;;5.40;99.90;;;;;;5089499;28;20175;-72
2023/01/17 04:49:04;;;;;;;2.90;2.10;;;5.30;99.90;;;;;;5061456;28;20176;-73
2023/01/17 04:51:29;;;;;;;3.47;1.73;;;5.30;99.90;;;;;;5050314;28;20210;-73
2023/01/17 04:53:55;;;;;;;4.90;2.30;;;5.20;99.90;;;;;;5051501;28;20235;-73
2023/01/17 04:56:21;;;;;;;3.53;2.20;;;5.20;99.90;;;;;;5069113;28;20208;-73
2023/01/17 04:58:47;;;;;;;5.20;2.50;;;5.20;99.90;;;;;;5078743;28;20203;-73
2023/01/17 05:01:12;;;;;;;7.90;2.80;;;5.20;99.90;;;;;;5067997;28;20647;-73
2023/01/17 05:03:38;;;;;;;5.47;2.20;;;5.20;99.90;;;;;;5033868;28;21044;-73
2023/01/17 05:06:04;;;;;;;6.83;2.43;;;5.20;99.90;;;;;;5050667;28;20195;-73
2023/01/17 05:08:30;;;;;;;2.47;1.57;;;5.20;99.90;;;;;;5069201;28;20729;-73
2023/01/17 05:10:55;;;;;;;5.17;2.67;;;5.30;99.90;;;;;;5068062;28;20598;-73
2023/01/17 05:13:21;;;;;;;5.50;2.17;;;5.30;99.90;;;;;;5050562;28;20208;-73
2023/01/17 05:15:47;;;;;;;3.80;1.60;;;5.30;99.90;;;;;;5051166;28;20180;-73
2023/01/17 05:18:15;;;;;;;5.17;1.80;;;5.30;99.90;;;;;;5067629;28;20196;-73
2023/01/17 05:20:41;;;;;;;3.72;2.22;;;5.30;99.90;;;;;;5068453;28;20176;-73
2023/01/17 05:23:06;;;;;;;7.53;2.70;;;5.40;99.90;;;;;;5068444;28;20263;-73
2023/01/17 05:25:32;;;;;;;2.50;2.10;;;5.40;99.90;;;;;;5034482;28;20264;-73
2023/01/17 05:27:59;;;;;;;3.30;1.67;;;5.40;99.90;;;;;;5051170;28;20578;-72
2023/01/17 05:30:25;;;;;;;2.70;1.80;;;5.40;99.90;;;;;;5051689;28;20177;-73
2023/01/17 05:32:55;;;;;;;8.25;1.90;;;5.40;99.90;;;;;;5051172;28;20183;-73
2023/01/17 05:35:24;;;;;;;3.17;2.00;;;5.40;99.90;;;;;;5054479;28;20199;-73
2023/01/17 05:37:50;;;;;;;2.33;2.08;;;5.40;99.90;;;;;;5049700;28;20211;-73
2023/01/17 05:40:17;;;;;;;2.67;1.80;;;5.40;99.90;;;;;;5068231;28;20165;-73
2023/01/17 05:42:45;;;;;;;2.85;1.95;;;5.40;99.90;;;;;;5068773;28;20677;-73
2023/01/17 05:45:11;;;;;;;4.60;2.00;;;5.50;99.90;;;;;;5050668;28;20176;-74
2023/01/17 05:47:37;;;;;;;3.85;2.45;;;5.50;99.90;;;;;;5051206;28;20311;-73
2023/01/17 05:50:03;;;;;;;4.03;2.33;;;5.50;99.90;;;;;;5068219;28;20179;-73
2023/01/17 05:52:28;;;;;;;3.60;2.70;;;5.50;99.90;;;;;;5051074;28;20175;-73
2023/01/17 05:54:54;;;;;;;3.73;2.23;;;5.50;99.90;;;;;;5068861;28;20675;-73
2023/01/17 05:57:19;;;;;;;3.80;2.90;;;5.50;99.90;;;;;;5068293;28;20683;-72
2023/01/17 05:59:45;;;;;;;3.00;1.93;;;5.50;99.90;;;;;;5068861;28;20532;-73
2023/01/17 06:02:11;;;;;;;5.10;2.17;;;5.50;99.90;;;;;;5068828;28;20164;-73
2023/01/17 06:04:37;;;;;;;4.83;2.40;;;5.50;99.90;;;;;;5034047;28;20212;-73
2023/01/17 06:07:02;;;;;;;4.03;2.30;;;5.50;99.90;;;;;;5068399;28;20689;-73
2023/01/17 06:09:31;;;;;;;6.00;2.80;;;5.50;99.90;;;;;;5068786;28;20522;-73
2023/01/17 06:11:56;;;;;;;4.13;2.45;;;5.50;99.90;;;;;;5073225;28;20215;-73
2023/01/17 06:14:25;;;;;;;2.97;2.23;;;5.50;99.90;;;;;;5054713;28;20527;-73
2023/01/17 06:16:50;;;;;;;3.33;2.35;;;5.40;99.90;;;;;;5072467;28;20176;-72
2023/01/17 06:19:19;;;;;;;4.50;2.90;;;5.40;99.90;;;;;;5072120;28;20193;-73
2023/01/17 06:21:45;;;;;;;3.90;1.90;;;5.30;99.90;;;;;;5070327;28;20544;-72
2023/01/17 06:24:10;;;;;;;3.20;2.47;;;5.30;99.90;;;;;;5054211;28;20183;-73
2023/01/17 06:26:36;;;;;;;4.70;2.60;;;5.20;99.90;;;;;;5072198;28;20636;-72
2023/01/17 06:29:02;;;;;;;3.53;2.33;;;5.10;99.90;;;;;;5070786;28;20176;-72
2023/01/17 06:31:27;;;;;;;5.70;2.47;;;5.10;99.90;;;;;;5053726;28;20586;-72
2023/01/17 06:33:54;;;;;;;3.50;2.70;;;5.00;99.90;;;;;;5071594;28;20254;-72
2023/01/17 06:36:19;;;;;;;4.68;3.30;;;4.90;99.90;;;;;;5072114;28;20173;-72
2023/01/17 06:38:49;;;;;;;3.73;2.43;;;4.90;99.90;;;;;;5037320;28;20694;-72
2023/01/17 06:41:15;;;;;;;3.67;2.90;;;4.80;99.90;;;;;;5053063;28;20172;-72
2023/01/17 06:43:41;;;;;;;3.77;2.70;;;4.70;99.90;;;;;;5053966;28;20191;-73
2023/01/17 06:46:06;;;;;;;4.40;3.37;;;4.70;99.90;;;;;;5071734;28;20566;-72
2023/01/17 06:48:32;;;;;;;5.10;3.27;;;4.70;99.90;;;;;;5072541;28;20202;-72
2023/01/17 06:50:58;;;;;;;5.73;4.10;;;4.60;99.90;;;;;;5054588;28;20516;-72
2023/01/17 06:53:24;;;;;;;6.40;3.83;;;4.50;99.90;;;;;;5071259;28;20165;-72
2023/01/17 06:55:54;;;;;;;10.13;4.70;;;4.50;99.90;;;;;;5070101;28;20268;-73
2023/01/17 06:58:19;;;;;;;8.68;4.03;;;4.50;99.90;;;;;;5071550;28;20602;-72
2023/01/17 07:00:48;;;;;;;9.33;4.60;;;4.40;99.90;;;;;;5053086;28;20625;-72
2023/01/17 07:03:25;;;;;;;7.03;3.65;;;4.40;99.90;;;;;;5053151;28;20172;-74
2023/01/17 07:05:51;;;;;;;4.18;2.75;;;4.30;99.90;;;;;;5072007;28;20879;-73
2023/01/17 07:08:18;;;;;;;6.28;3.35;;;4.30;99.90;;;;;;5091408;28;20240;-73
2023/01/17 07:10:47;;;;;;;6.97;3.58;;;4.20;99.90;;;;;;5091472;28;20202;-73
2023/01/17 07:13:13;;;;;;;3.95;2.67;;;4.20;99.90;;;;;;5072671;28;20164;-73
2023/01/17 07:15:39;;;;;;;6.85;2.78;;;4.20;99.90;;;;;;5107501;22;20694;-78
2023/01/17 07:18:08;;;;;;;3.97;3.17;;;4.20;99.90;;;;;;5073235;28;20229;-77
2023/01/17 07:20:34;;;;;;;5.35;3.15;;;4.10;99.90;;;;;;5090312;28;20548;-77
2023/01/17 07:23:00;;;;;;;4.53;3.00;;;4.10;99.90;;;;;;5090458;28;20170;-77
2023/01/17 07:25:28;;;;;;;7.07;3.20;;;4.10;99.90;;;;;;5091873;28;20179;-77
2023/01/17 07:27:56;;;;;;;6.03;3.25;;;4.10;99.90;;;;;;5073134;28;20250;-77
2023/01/17 07:30:22;;;;;;;6.70;3.47;;;4.10;99.90;;;;;;5072794;28;20203;-77
2023/01/17 07:32:52;;;;;;;5.53;3.22;;;4.10;99.90;;;;;;5091254;28;20268;-77
2023/01/17 07:35:18;;;;;;;5.53;3.33;;;4.10;99.90;;;;;;5072722;28;20207;-80
2023/01/17 07:37:48;;;;;;;4.53;3.50;;;4.10;99.90;;;;;;5073358;28;20670;-81
2023/01/17 07:40:16;;;;;;;5.57;3.50;;;4.10;99.90;;;;;;5072152;28;20566;-80
2023/01/17 07:42:43;;;;;;;5.45;3.45;;;4.20;99.90;;;;;;5072450;28;20183;-80
2023/01/17 07:45:10;;;;;;;5.72;3.40;;;4.20;99.90;;;;;;5055519;28;20203;-80
2023/01/17 07:47:36;;;;;;;4.60;3.17;;;4.20;99.90;;;;;;5056092;28;20235;-80
2023/01/17 07:50:03;;;;;;;5.65;3.72;;;4.30;99.90;;;;;;5055573;28;20207;-80
2023/01/17 07:52:29;;;;;;;4.15;2.75;;;4.40;99.90;;;;;;5072479;28;20233;-78
2023/01/17 07:55:04;;;;;;;4.07;3.07;;;4.40;99.90;;;;;;5072198;28;20207;-78
2023/01/17 07:57:49;;;;;;;3.70;2.70;;;4.50;99.90;;;;;;5073370;28;20665;-77
2023/01/17 08:00:16;;;;;;;6.17;3.03;;;4.50;99.90;;;;;;5054728;28;20164;-78
2023/01/17 08:02:42;;;;;;;4.13;2.47;;;4.50;99.90;;;;;;5071995;28;20203;-78
2023/01/17 08:05:08;;;;;;;4.20;2.90;;;4.50;99.90;;;;;;5055744;28;20188;-77
2023/01/17 08:07:36;;;;;;;4.10;2.70;;;4.50;99.90;;;;;;5072081;28;20605;-78
2023/01/17 08:10:02;;;;;;;3.63;2.45;;;4.50;99.90;;;;;;5071892;28;21188;-77
2023/01/17 08:12:28;;;;;;;4.18;3.00;;;4.50;99.90;;;;;;5071610;28;20195;-77
2023/01/17 08:14:54;;;;;;;5.10;2.50;;;4.50;99.90;;;;;;5071441;28;20211;-77
2023/01/17 08:17:20;;;;;;;7.33;3.07;;;4.50;99.90;;;;;;5089993;28;20201;-77
2023/01/17 08:19:48;;;;;;;4.05;2.85;;;4.50;99.90;;;;;;5089953;28;21054;-77
2023/01/17 08:22:18;;;;;;;3.90;2.03;;;4.50;99.90;;;;;;5072040;28;20171;-77
2023/01/17 08:24:43;;;;;;;3.58;2.45;;;4.50;99.90;;;;;;5072009;28;20179;-77
2023/01/17 08:27:09;;;;;;;5.50;2.20;;;4.60;99.90;;;;;;5070106;28;20175;-77
2023/01/17 08:29:36;;;;;;;5.95;3.00;;;4.60;99.90;;;;;;5043703;28;20593;-77
2023/01/17 08:32:02;;;;;;;3.45;2.50;;;4.60;99.90;;;;;;5074008;28;20210;-79
2023/01/17 08:34:31;;;;;;;5.28;2.55;;;4.60;99.90;;;;;;5090589;28;20638;-78
2023/01/17 08:36:57;;;;;;;3.35;2.30;;;4.60;99.90;;;;;;5091624;28;20182;-78
2023/01/17 08:39:22;;;;;;;4.33;2.60;;;4.70;99.90;;;;;;5091124;28;20172;-78
2023/01/17 08:41:48;;;;;;;4.60;3.03;;;4.70;99.90;;;;;;5055803;28;20218;-78
2023/01/17 08:44:14;;;;;;;7.10;3.00;;;4.80;99.90;;;;;;5055866;28;20705;-79
2023/01/17 08:46:40;;;;;;;6.35;2.75;;;4.80;99.90;;;;;;5073354;28;20620;-78
2023/01/17 08:49:09;;;;;;;3.20;2.35;;;4.90;99.90;;;;;;5073301;28;20253;-77
2023/01/17 08:51:35;;;;;;;5.75;2.78;;;4.90;99.90;;;;;;5071972;28;20197;-78
2023/01/17 08:54:01;;;;;;;4.60;2.83;;;4.90;99.90;;;;;;5072972;28;20199;-77
2023/01/17 08:56:27;;;;;;;3.20;2.30;;;4.90;99.90;;;;;;5072462;28;20190;-77
2023/01/17 08:58:52;;;;;;;4.60;3.00;;;5.00;99.90;;;;;;5074139;28;21136;-77
2023/01/17 09:01:18;;;;;;;4.10;2.77;;;5.10;99.90;;;;;;5072405;28;20179;-77
2023/01/17 09:03:48;;;;;;;4.53;3.25;;;5.20;99.90;;;;;;5056102;28;20646;-78
2023/01/17 09:06:15;;;;;;;3.53;2.15;;;5.30;99.90;;;;;;5072551;28;20218;-78
2023/01/17 09:08:45;;;;;;;6.28;2.90;;;5.40;99.90;;;;;;5077172;28;20627;-77
2023/01/17 09:11:13;;;;;;;3.10;2.15;;;5.50;99.90;;;;;;5089098;28;20223;-78
2023/01/17 09:13:40;;;;;;;5.30;3.30;;;5.60;99.90;;;;;;5060473;28;20279;-77
2023/01/17 09:16:06;;;;;;;3.55;2.30;;;5.70;99.90;;;;;;5083729;28;20203;-77
2023/01/17 09:18:35;;;;;;;2.85;2.10;;;5.80;99.90;;;;;;5071953;28;20233;-77
2023/01/17 09:21:15;;;;;;;3.97;2.25;;;5.80;99.90;;;;;;5107903;28;20175;-77
2023/01/17 09:23:42;;;;;;;3.95;1.95;;;5.90;99.90;;;;;;5082804;28;20172;-76
2023/01/17 09:26:19;;;;;;;2.55;2.35;;;6.00;99.90;;;;;;5055161;28;20557;-76
2023/01/17 09:28:45;;;;;;;3.28;2.15;;;6.10;99.90;;;;;;5065000;28;20171;-79
2023/01/17 09:31:11;;;;;;;4.60;2.33;;;6.20;99.90;;;;;;5071795;28;20816;-77
2023/01/17 09:33:37;;;;;;;2.70;2.07;;;6.40;99.90;;;;;;5090232;28;20281;-76
2023/01/17 09:36:04;;;;;;;3.58;2.10;;;6.50;99.90;;;;;;5080221;28;20195;-76
2023/01/17 09:38:31;;;;;;;3.53;2.70;;;6.60;99.90;;;;;;5098607;28;20176;-76
2023/01/17 09:40:57;;;;;;;3.28;2.55;;;6.70;99.90;;;;;;5071579;28;20183;-77
2023/01/17 09:43:42;;;;;;;4.63;2.10;;;6.70;99.90;;;;;;5098039;28;20218;-77
2023/01/17 09:46:21;;;;;;;6.32;2.33;;;6.80;99.90;;;;;;5023143;28;20563;-76
2023/01/17 09:48:51;;;;;;;5.35;2.50;;;6.90;99.90;;;;;;5072404;28;20544;-76
2023/01/17 09:51:23;;;;;;;2.92;2.00;;;7.00;99.90;;;;;;5055270;28;20195;-76
2023/01/17 09:53:50;;;;;;;3.83;2.40;;;7.10;99.90;;;;;;5056722;28;20211;-76
2023/01/17 09:56:28;;;;;;;4.47;2.53;;;7.10;99.90;;;;;;5066956;28;20191;-76
2023/01/17 09:59:07;;;;;;;1.65;1.20;;;7.20;99.90;;;;;;5087736;28;20180;-77
2023/01/17 10:01:46;;;;;;;3.22;1.80;;;7.10;99.90;;;;;;5074249;28;20232;-77
2023/01/17 10:04:59;;;;;;;2.47;1.42;;;7.10;99.90;;;;;;5104489;28;20190;-77
2023/01/17 10:08:02;;;;;;;3.95;1.92;;;7.20;99.90;;;;;;5045055;28;20186;-77
2023/01/17 10:10:52;;;;;;;3.35;1.75;;;7.20;99.90;;;;;;5093963;28;20175;-78
2023/01/17 10:13:27;;;;;;;1.70;1.20;;;7.20;99.90;;;;;;5044770;28;20208;-77
2023/01/17 10:16:39;;;;;;;2.50;1.90;;;7.20;99.90;;;;;;5064499;28;20206;-78
2023/01/17 10:19:42;;;;;;;2.70;1.65;;;7.20;99.90;;;;;;5057994;28;20192;-77
2023/01/17 10:22:32;;;;;;;3.60;1.85;;;7.20;99.90;;;;;;5058359;28;20176;-77
2023/01/17 10:25:11;;;;;;;3.53;1.70;;;7.10;99.90;;;;;;5055447;28;20227;-78
2023/01/17 10:27:43;;;;;;;5.65;2.10;;;7.20;99.90;;;;;;5056360;28;20272;-78
2023/01/17 10:30:33;;;;;;;6.25;1.85;;;7.20;99.90;;;;;;5054987;28;20183;-79
2023/01/17 10:33:03;;;;;;;3.55;1.40;;;7.30;99.90;;;;;;5055530;28;20179;-79
2023/01/17 10:35:33;;;;;;;4.35;1.73;;;7.30;99.90;;;;;;5055269;28;20299;-79
2023/01/17 10:38:04;;;;;;;2.70;1.35;;;7.40;99.90;;;;;;5073625;28;20172;-79
2023/01/17 10:40:45;;;;;;;4.18;1.85;;;7.50;99.90;;;;;;5078189;28;20315;-78
2023/01/17 10:43:38;;;;;;;4.28;1.45;;;7.60;99.90;;;;;;5095103;28;20203;-78
2023/01/17 10:46:04;;;;;;;2.67;1.35;;;7.70;99.90;;;;;;5092083;28;20277;-77
2023/01/17 10:48:51;;;;;;;4.05;3.22;;;7.70;99.90;;;;;;5066169;28;20226;-77
2023/01/17 10:51:58;;;;;;;3.85;1.70;;;7.80;99.90;;;;;;5070352;28;20252;-77
2023/01/17 10:54:52;;;;;;;3.20;1.65;;;7.90;99.90;;;;;;5007308;28;20251;-77
2023/01/17 10:57:21;;;;;;;3.20;1.60;;;8.00;99.90;;;;;;5055347;28;20588;-78
2023/01/17 10:59:47;;;;;;;3.10;1.52;;;8.10;99.90;;;;;;5075087;28;20194;-78
2023/01/17 11:02:31;;;;;;;3.30;2.10;;;8.20;99.90;;;;;;5091188;28;20171;-78
2023/01/17 11:05:02;;;;;;;2.85;1.65;;;8.30;99.90;;;;;;5095788;28;20300;-78
2023/01/17 11:07:29;;;;;;;6.28;2.22;;;8.30;99.90;;;;;;5092890;28;20231;-77
2023/01/17 11:09:56;;;;;;;5.50;2.67;;;8.40;99.90;;;;;;5079239;28;20175;-78
2023/01/17 11:12:53;;;;;;;2.80;2.10;;;8.50;99.90;;;;;;5080073;28;20195;-77
2023/01/17 11:15:24;;;;;;;7.05;2.40;;;8.60;99.90;;;;;;5040226;28;20230;-77
2023/01/17 11:18:02;;;;;;;4.90;1.65;;;8.60;99.90;;;;;;5082104;28;20206;-77
2023/01/17 11:20:33;;;;;;;2.83;1.30;;;8.70;99.90;;;;;;5094682;28;20179;-79
2023/01/17 11:23:29;;;;;;;9.07;1.30;;;8.80;99.90;;;;;;5076747;28;20179;-78
2023/01/17 11:26:01;;;;;;;3.50;2.05;;;8.70;99.90;;;;;;5092057;28;20256;-78
2023/01/17 11:28:31;;;;;;;4.20;1.33;;;8.80;99.90;;;;;;5075034;28;20175;-78
2023/01/17 11:31:03;;;;;;;3.40;1.45;;;8.70;99.90;;;;;;5071959;28;20180;-78
2023/01/17 11:33:44;;;;;;;6.03;1.80;;;8.60;99.90;;;;;;5093595;28;20241;-77
2023/01/17 11:36:26;;;;;;;4.38;1.50;;;8.50;99.90;;;;;;5092342;28;20183;-77
2023/01/17 11:38:57;;;;;;;3.13;1.40;;;8.40;99.90;;;;;;5058167;28;20175;-77
2023/01/17 11:41:26;;;;;;;4.38;1.77;;;8.30;99.90;;;;;;5057217;28;20245;-77
2023/01/17 11:43:56;;;;;;;4.35;1.70;;;8.30;99.90;;;;;;5092810;28;20191;-77
2023/01/17 11:46:23;;;;;;;3.63;1.42;;;8.20;99.90;;;;;;5076405;28;20245;-76
2023/01/17 11:48:52;;;;;;;7.75;1.50;;;8.10;99.90;;;;;;5083874;28;20183;-77
2023/01/17 11:51:40;;;;;;;4.78;1.83;;;8.00;99.90;;;;;;5071720;28;20182;-76
2023/01/17 11:54:28;;;;;;;3.63;1.60;;;7.90;99.90;;;;;;5075548;28;20207;-77
2023/01/17 11:56:57;;;;;;;4.30;1.48;;;7.90;99.90;;;;;;5053555;28;20204;-76
2023/01/17 11:59:37;;;;;;;2.95;1.35;;;7.80;99.90;;;;;;5072177;28;20165;-76
2023/01/17 12:02:08;;;;;;;4.32;1.10;;;7.60;99.90;;;;;;5071486;28;20168;-76
2023/01/17 12:04:43;;;;;;;3.40;1.40;;;7.60;99.90;;;;;;5053655;28;20172;-76
2023/01/17 12:07:27;;;;;;;3.40;1.33;;;7.50;99.90;;;;;;5071336;28;20187;-76
2023/01/17 12:10:24;;;;;;;5.88;1.25;;;7.50;99.90;;;;;;5070430;28;20234;-76
2023/01/17 12:16:32;;;;;;;2.78;1.58;;;7.50;99.90;;;;;;5093939;28;20615;-75
2023/01/17 12:19:09;;;;;;;3.33;1.65;;;7.50;99.90;;;;;;5115289;27;20218;-76
2023/01/17 12:21:50;;;;;;;3.33;1.55;;;7.40;99.90;;;;;;5105825;28;20171;-76
2023/01/17 12:24:44;;;;;;;3.65;1.63;;;7.40;99.90;;;;;;5111935;28;20179;-76
2023/01/17 12:27:23;;;;;;;3.47;1.08;;;7.40;99.90;;;;;;5122350;27;20315;-76
2023/01/17 12:30:30;;;;;;;7.78;1.48;;;7.40;99.90;;;;;;5095120;28;20186;-76
2023/01/17 12:32:56;;;;;;;2.90;0.90;;;7.40;99.90;;;;;;5028942;28;20173;-76
2023/01/17 12:35:49;;;;;;;2.67;0.77;;;7.50;99.90;;;;;;5064936;28;20230;-77
2023/01/17 12:38:25;;;;;;;5.30;0.90;;;7.50;99.90;;;;;;5103684;28;20196;-77
2023/01/17 12:41:01;;;;;;;5.07;1.10;;;7.60;99.90;;;;;;5111813;28;20510;-76
2023/01/17 12:43:38;;;;;;;3.88;0.90;;;7.50;99.90;;;;;;5091324;28;20177;-77
2023/01/17 12:46:28;;;;;;;1.95;0.70;;;7.60;99.90;;;;;;5089054;28;20199;-77
2023/01/17 12:49:20;;;;;;;1.60;0.80;;;7.60;99.90;;;;;;5099067;28;20171;-77
2023/01/17 12:51:53;;;;;;;3.05;1.38;;;7.70;99.90;;;;;;5088502;28;20179;-77
2023/01/17 12:55:00;;;;;;;1.50;0.90;;;7.80;99.90;;;;;;5093155;28;20682;-77
2023/01/17 12:57:39;;;;;;;3.65;0.80;;;7.80;99.90;;;;;;5072370;28;20186;-77
2023/01/17 13:00:09;;;;;;;3.03;1.13;;;7.90;99.90;;;;;;5080448;28;20168;-77
2023/01/17 13:02:37;;;;;;;2.22;0.93;;;8.00;99.90;;;;;;5080982;28;20172;-77
2023/01/17 13:05:09;;;;;;;3.05;1.55;;;7.90;99.90;;;;;;5094471;28;20198;-77
2023/01/17 13:07:57;;;;;;;5.13;1.00;;;8.00;99.90;;;;;;5064467;28;20183;-78
2023/01/17 13:10:38;;;;;;;4.35;1.30;;;8.00;99.90;;;;;;5055670;28;20178;-80
2023/01/17 13:13:18;;;;;;;2.70;1.10;;;8.00;99.90;;;;;;5090836;28;20266;-78
2023/01/17 13:15:47;;;;;;;4.88;1.00;;;8.10;99.90;;;;;;5069236;28;20293;-78
2023/01/17 13:18:16;;;;;;;4.75;1.05;;;8.00;99.90;;;;;;5068904;28;20250;-77
2023/01/17 13:21:15;;;;;;;4.65;1.20;;;8.00;99.90;;;;;;5084641;28;20203;-77
2023/01/17 13:23:57;;;;;;;2.67;0.80;;;7.90;99.90;;;;;;5052376;28;20181;-77
2023/01/17 13:26:39;;;;;;;5.20;0.90;;;7.80;99.90;;;;;;5063711;22;20220;-80
2023/01/17 13:29:29;;;;;;;7.43;1.52;;;7.80;99.90;;;;;;5084777;28;20183;-79
2023/01/17 13:32:22;;;;;;;3.53;1.00;;;7.60;99.90;;;;;;5078602;28;20176;-79
2023/01/17 13:35:14;;;;;;;2.97;1.40;;;7.50;99.90;;;;;;5074794;28;20219;-79
2023/01/17 13:38:02;;;;;;;2.88;1.55;;;7.40;99.90;;;;;;5074320;28;20180;-79
2023/01/17 13:40:48;;;;;;;4.13;1.00;;;7.30;99.90;;;;;;5059082;28;20195;-80
2023/01/17 13:43:21;;;;;;;2.30;1.00;;;7.30;99.90;;;;;;5075230;28;20174;-79
2023/01/17 13:45:52;;;;;;;2.75;0.90;;;7.30;99.90;;;;;;5087310;28;20191;-79
2023/01/17 13:48:18;;;;;;;6.45;1.20;;;7.20;99.90;;;;;;5084925;28;20227;-80
2023/01/17 13:50:47;;;;;;;2.38;0.90;;;7.20;99.90;;;;;;5083936;28;20168;-80
2023/01/17 13:53:37;;;;;;;1.75;1.20;;;7.20;99.90;;;;;;5075086;28;20171;-81
2023/01/17 13:56:18;;;;;;;2.40;1.20;;;7.20;99.90;;;;;;5094852;28;20286;-80
2023/01/17 13:59:25;;;;;;;4.72;1.63;;;7.20;99.90;;;;;;5076015;28;20178;-82
2023/01/17 14:01:52;;;;;;;3.80;2.13;;;7.10;99.90;;;;;;5092441;28;20533;-81
2023/01/17 14:04:18;;;;;;;4.00;2.17;;;7.10;99.90;;;;;;5091581;28;20208;-81
2023/01/17 14:06:58;;;;;;;2.97;1.70;;;7.00;99.90;;;;;;5091319;28;20263;-81
2023/01/17 14:09:29;;;;;;;3.00;1.50;;;7.00;99.90;;;;;;5073080;28;20197;-82
2023/01/17 14:12:05;;;;;;;5.22;1.20;;;7.00;99.90;;;;;;5072098;28;20314;-82
2023/01/17 14:14:40;;;;;;;3.10;1.40;;;7.00;99.90;;;;;;5072729;28;20836;-82
2023/01/17 14:17:14;;;;;;;2.80;1.30;;;7.00;99.90;;;;;;5070735;28;20487;-81
2023/01/17 14:19:45;;;;;;;1.88;0.90;;;7.00;99.90;;;;;;5041575;28;20538;-81
2023/01/17 14:22:20;;;;;;;2.05;0.98;;;6.90;99.90;;;;;;5053985;28;20177;-81
2023/01/17 14:25:18;;;;;;;3.92;2.38;;;6.90;99.90;;;;;;5085335;28;20170;-80
2023/01/17 14:28:00;;;;;;;7.75;2.15;;;6.90;99.90;;;;;;5056569;28;20182;-80
2023/01/17 14:30:32;;;;;;;5.82;1.95;;;6.80;99.90;;;;;;5074866;28;20184;-80
2023/01/17 14:32:59;;;;;;;4.50;1.20;;;6.80;99.90;;;;;;5065100;28;20209;-73
2023/01/17 14:35:28;;;;;;;2.75;1.20;;;6.80;99.90;;;;;;5094080;28;20626;-73
2023/01/17 14:37:56;;;;;;;5.15;1.70;;;6.80;99.90;;;;;;5075269;28;20225;-73
2023/01/17 14:40:29;;;;;;;4.85;2.15;;;6.70;99.90;;;;;;5075523;28;20704;-73
2023/01/17 14:43:18;;;;;;;4.50;2.13;;;6.70;99.90;;;;;;5075572;28;20172;-73
2023/01/17 14:45:44;;;;;;;6.90;2.42;;;6.70;99.90;;;;;;5092361;28;20691;-74
2023/01/17 14:48:22;;;;;;;4.53;1.60;;;6.70;99.90;;;;;;5075408;28;20695;-73